sensor_id;sensor_type;location;lat;lon;timestamp;temperature;humidity
52889;DHT22;41413;52.770;6.892;2023-07-29T00:01:32;19.00;99.90
52889;DHT22;41413;52.770;6.892;2023-07-29T00:03:59;19.10;99.90
52889;DHT22;41413;52.770;6.892;2023-07-29T00:06:26;19.00;99.90
52889;DHT22;41413;52.770;6.892;2023-07-29T00:08:53;19.00;99.90
52889;DHT22;41413;52.770;6.892;2023-07-29T00:11:20;19.00;99.90
52889;DHT22;41413;52.770;6.892;2023-07-29T00:13:47;19.00;99.90
52889;DHT22;41413;52.770;6.892;2023-07-29T00:16:13;18.90;99.90
52889;DHT22;41413;52.770;6.892;2023-07-29T00:18:42;18.90;99.90
52889;DHT22;41413;52.770;6.892;2023-07-29T00:21:09;19.00;99.90
52889;DHT22;41413;52.770;6.892;2023-07-29T00:23:36;18.90;99.90
52889;DHT22;41413;52.770;6.892;2023-07-29T00:26:02;18.90;99.90
52889;DHT22;41413;52.770;6.892;2023-07-29T00:28:29;18.90;99.90
52889;DHT22;41413;52.770;6.892;2023-07-29T00:30:56;19.00;99.90
52889;DHT22;41413;52.770;6.892;2023-07-29T00:33:23;19.00;99.90
52889;DHT22;41413;52.770;6.892;2023-07-29T00:35:49;19.00;99.90
52889;DHT22;41413;52.770;6.892;2023-07-29T00:38:16;19.00;99.90
52889;DHT22;41413;52.770;6.892;2023-07-29T00:40:43;19.00;99.90
52889;DHT22;41413;52.770;6.892;2023-07-29T00:43:10;18.90;99.90
52889;DHT22;41413;52.770;6.892;2023-07-29T00:45:37;18.90;99.90
52889;DHT22;41413;52.770;6.892;2023-07-29T00:48:05;18.90;99.90
52889;DHT22;41413;52.770;6.892;2023-07-29T00:50:32;18.90;99.90
52889;DHT22;41413;52.770;6.892;2023-07-29T00:52:59;18.90;99.90
52889;DHT22;41413;52.770;6.892;2023-07-29T00:55:26;18.90;99.90
52889;DHT22;41413;52.770;6.892;2023-07-29T00:57:53;18.90;99.90
52889;DHT22;41413;52.770;6.892;2023-07-29T01:00:21;18.90;99.90
52889;DHT22;41413;52.770;6.892;2023-07-29T01:02:48;18.90;99.90
52889;DHT22;41413;52.770;6.892;2023-07-29T01:05:16;18.90;99.90
52889;DHT22;41413;52.770;6.892;2023-07-29T01:07:58;18.90;99.90
52889;DHT22;41413;52.770;6.892;2023-07-29T01:10:31;18.90;99.90
52889;DHT22;41413;52.770;6.892;2023-07-29T01:13:19;18.90;99.90
52889;DHT22;41413;52.770;6.892;2023-07-29T01:15:57;18.90;99.90
52889;DHT22;41413;52.770;6.892;2023-07-29T01:18:31;18.80;99.90
52889;DHT22;41413;52.770;6.892;2023-07-29T01:21:03;18.70;99.90
52889;DHT22;41413;52.770;6.892;2023-07-29T01:23:31;18.70;99.90
52889;DHT22;41413;52.770;6.892;2023-07-29T01:25:58;18.70;99.90
52889;DHT22;41413;52.770;6.892;2023-07-29T01:28:26;18.70;99.90
52889;DHT22;41413;52.770;6.892;2023-07-29T01:31:35;18.70;99.90
52889;DHT22;41413;52.770;6.892;2023-07-29T01:34:20;18.60;99.90
52889;DHT22;41413;52.770;6.892;2023-07-29T01:36:50;18.60;99.90
52889;DHT22;41413;52.770;6.892;2023-07-29T01:39:20;18.60;99.90
52889;DHT22;41413;52.770;6.892;2023-07-29T01:41:49;18.60;99.90
52889;DHT22;41413;52.770;6.892;2023-07-29T01:44:18;18.50;99.90
52889;DHT22;41413;52.770;6.892;2023-07-29T01:46:46;18.50;99.90
52889;DHT22;41413;52.770;6.892;2023-07-29T01:49:13;18.40;99.90
52889;DHT22;41413;52.770;6.892;2023-07-29T01:51:40;18.40;99.90
52889;DHT22;41413;52.770;6.892;2023-07-29T01:54:06;18.40;99.90
52889;DHT22;41413;52.770;6.892;2023-07-29T01:56:33;18.40;99.90
52889;DHT22;41413;52.770;6.892;2023-07-29T01:59:00;18.40;99.90
52889;DHT22;41413;52.770;6.892;2023-07-29T02:01:27;18.30;99.90
52889;DHT22;41413;52.770;6.892;2023-07-29T02:03:54;18.40;99.90
52889;DHT22;41413;52.770;6.892;2023-07-29T02:06:24;18.30;99.90
52889;DHT22;41413;52.770;6.892;2023-07-29T02:08:51;18.30;99.90
52889;DHT22;41413;52.770;6.892;2023-07-29T02:11:17;18.30;99.90
52889;DHT22;41413;52.770;6.892;2023-07-29T02:13:47;18.30;99.90
52889;DHT22;41413;52.770;6.892;2023-07-29T02:16:13;18.30;99.90
52889;DHT22;41413;52.770;6.892;2023-07-29T02:18:40;18.30;99.90
52889;DHT22;41413;52.770;6.892;2023-07-29T02:21:07;18.30;99.90
52889;DHT22;41413;52.770;6.892;2023-07-29T02:23:33;18.20;99.90
52889;DHT22;41413;52.770;6.892;2023-07-29T02:26:00;18.30;99.90
52889;DHT22;41413;52.770;6.892;2023-07-29T02:28:27;18.20;99.90
52889;DHT22;41413;52.770;6.892;2023-07-29T02:31:16;18.20;99.90
52889;DHT22;41413;52.770;6.892;2023-07-29T02:33:43;18.30;99.90
52889;DHT22;41413;52.770;6.892;2023-07-29T02:36:12;18.30;99.90
52889;DHT22;41413;52.770;6.892;2023-07-29T02:38:40;18.20;99.90
52889;DHT22;41413;52.770;6.892;2023-07-29T02:41:08;18.20;99.90
52889;DHT22;41413;52.770;6.892;2023-07-29T02:43:36;18.20;99.90
52889;DHT22;41413;52.770;6.892;2023-07-29T02:46:03;18.10;99.90
52889;DHT22;41413;52.770;6.892;2023-07-29T02:48:30;18.10;99.90
52889;DHT22;41413;52.770;6.892;2023-07-29T02:50:57;18.10;99.90
52889;DHT22;41413;52.770;6.892;2023-07-29T02:53:23;18.10;99.90
52889;DHT22;41413;52.770;6.892;2023-07-29T02:55:50;18.10;99.90
52889;DHT22;41413;52.770;6.892;2023-07-29T02:58:17;18.10;99.90
52889;DHT22;41413;52.770;6.892;2023-07-29T03:00:44;18.10;99.90
52889;DHT22;41413;52.770;6.892;2023-07-29T03:03:10;18.10;99.90
52889;DHT22;41413;52.770;6.892;2023-07-29T03:05:37;18.00;99.90
52889;DHT22;41413;52.770;6.892;2023-07-29T03:08:04;18.00;99.90
52889;DHT22;41413;52.770;6.892;2023-07-29T03:10:31;18.00;99.90
52889;DHT22;41413;52.770;6.892;2023-07-29T03:12:58;18.00;99.90
52889;DHT22;41413;52.770;6.892;2023-07-29T03:15:25;18.00;99.90
52889;DHT22;41413;52.770;6.892;2023-07-29T03:17:52;17.90;99.90
52889;DHT22;41413;52.770;6.892;2023-07-29T03:20:19;17.90;99.90
52889;DHT22;41413;52.770;6.892;2023-07-29T03:22:46;17.90;99.90
52889;DHT22;41413;52.770;6.892;2023-07-29T03:25:13;17.90;99.90
52889;DHT22;41413;52.770;6.892;2023-07-29T03:27:40;17.80;99.90
52889;DHT22;41413;52.770;6.892;2023-07-29T03:30:07;17.80;99.90
52889;DHT22;41413;52.770;6.892;2023-07-29T03:32:34;17.80;99.90
52889;DHT22;41413;52.770;6.892;2023-07-29T03:35:01;17.80;99.90
52889;DHT22;41413;52.770;6.892;2023-07-29T03:37:27;17.70;99.90
52889;DHT22;41413;52.770;6.892;2023-07-29T03:39:54;17.70;99.90
52889;DHT22;41413;52.770;6.892;2023-07-29T03:42:21;17.70;99.90
52889;DHT22;41413;52.770;6.892;2023-07-29T03:44:48;17.60;99.90
52889;DHT22;41413;52.770;6.892;2023-07-29T03:47:14;17.70;99.90
52889;DHT22;41413;52.770;6.892;2023-07-29T03:49:41;17.60;99.90
52889;DHT22;41413;52.770;6.892;2023-07-29T03:52:08;17.60;99.90
52889;DHT22;41413;52.770;6.892;2023-07-29T03:54:34;17.50;99.90
52889;DHT22;41413;52.770;6.892;2023-07-29T03:57:01;17.50;99.90
52889;DHT22;41413;52.770;6.892;2023-07-29T03:59:28;17.50;99.90
52889;DHT22;41413;52.770;6.892;2023-07-29T04:01:55;17.50;99.90
52889;DHT22;41413;52.770;6.892;2023-07-29T04:04:22;17.50;99.90
52889;DHT22;41413;52.770;6.892;2023-07-29T04:06:49;17.50;99.90
52889;DHT22;41413;52.770;6.892;2023-07-29T04:09:16;17.40;99.90
52889;DHT22;41413;52.770;6.892;2023-07-29T04:11:43;17.50;99.90
52889;DHT22;41413;52.770;6.892;2023-07-29T04:14:09;17.50;99.90
52889;DHT22;41413;52.770;6.892;2023-07-29T04:16:36;17.50;99.90
52889;DHT22;41413;52.770;6.892;2023-07-29T04:19:03;17.50;99.90
52889;DHT22;41413;52.770;6.892;2023-07-29T04:21:30;17.50;99.90
52889;DHT22;41413;52.770;6.892;2023-07-29T04:23:57;17.50;99.90
52889;DHT22;41413;52.770;6.892;2023-07-29T04:26:23;17.50;99.90
52889;DHT22;41413;52.770;6.892;2023-07-29T04:28:50;17.50;99.90
52889;DHT22;41413;52.770;6.892;2023-07-29T04:31:17;17.50;99.90
52889;DHT22;41413;52.770;6.892;2023-07-29T04:33:44;17.50;99.90
52889;DHT22;41413;52.770;6.892;2023-07-29T04:36:10;17.50;99.90
52889;DHT22;41413;52.770;6.892;2023-07-29T04:38:37;17.50;99.90
52889;DHT22;41413;52.770;6.892;2023-07-29T04:41:04;17.50;99.90
52889;DHT22;41413;52.770;6.892;2023-07-29T04:43:33;17.60;99.90
52889;DHT22;41413;52.770;6.892;2023-07-29T04:46:00;17.60;99.90
52889;DHT22;41413;52.770;6.892;2023-07-29T04:48:27;17.60;99.90
52889;DHT22;41413;52.770;6.892;2023-07-29T04:50:54;17.60;99.90
52889;DHT22;41413;52.770;6.892;2023-07-29T04:53:20;17.60;99.90
52889;DHT22;41413;52.770;6.892;2023-07-29T04:55:47;17.60;99.90
52889;DHT22;41413;52.770;6.892;2023-07-29T04:58:14;17.60;99.90
52889;DHT22;41413;52.770;6.892;2023-07-29T05:00:41;17.60;99.90
52889;DHT22;41413;52.770;6.892;2023-07-29T05:03:07;17.60;99.90
52889;DHT22;41413;52.770;6.892;2023-07-29T05:05:34;17.70;99.90
52889;DHT22;41413;52.770;6.892;2023-07-29T05:08:01;17.70;99.90
52889;DHT22;41413;52.770;6.892;2023-07-29T05:10:28;17.60;99.90
52889;DHT22;41413;52.770;6.892;2023-07-29T05:12:55;17.70;99.90
52889;DHT22;41413;52.770;6.892;2023-07-29T05:15:21;17.70;99.90
52889;DHT22;41413;52.770;6.892;2023-07-29T05:17:48;17.70;99.90
52889;DHT22;41413;52.770;6.892;2023-07-29T05:20:15;17.70;99.90
52889;DHT22;41413;52.770;6.892;2023-07-29T05:22:42;17.70;99.90
52889;DHT22;41413;52.770;6.892;2023-07-29T05:25:08;17.70;99.90
52889;DHT22;41413;52.770;6.892;2023-07-29T05:27:35;17.70;99.90
52889;DHT22;41413;52.770;6.892;2023-07-29T05:30:02;17.70;99.90
52889;DHT22;41413;52.770;6.892;2023-07-29T05:32:29;17.70;99.90
52889;DHT22;41413;52.770;6.892;2023-07-29T05:34:56;17.80;99.90
52889;DHT22;41413;52.770;6.892;2023-07-29T05:37:23;17.70;99.90
52889;DHT22;41413;52.770;6.892;2023-07-29T05:39:49;17.80;99.90
52889;DHT22;41413;52.770;6.892;2023-07-29T05:42:16;17.80;99.90
52889;DHT22;41413;52.770;6.892;2023-07-29T05:44:43;17.90;99.90
52889;DHT22;41413;52.770;6.892;2023-07-29T05:47:09;17.90;99.90
52889;DHT22;41413;52.770;6.892;2023-07-29T05:49:36;17.90;99.90
52889;DHT22;41413;52.770;6.892;2023-07-29T05:52:03;17.90;99.90
52889;DHT22;41413;52.770;6.892;2023-07-29T05:54:30;17.90;99.90
52889;DHT22;41413;52.770;6.892;2023-07-29T05:56:57;17.90;99.90
52889;DHT22;41413;52.770;6.892;2023-07-29T05:59:24;18.00;99.90
52889;DHT22;41413;52.770;6.892;2023-07-29T06:01:50;17.90;99.90
52889;DHT22;41413;52.770;6.892;2023-07-29T06:04:17;17.90;99.90
52889;DHT22;41413;52.770;6.892;2023-07-29T06:06:44;18.00;99.90
52889;DHT22;41413;52.770;6.892;2023-07-29T06:09:11;18.00;99.90
52889;DHT22;41413;52.770;6.892;2023-07-29T06:11:37;18.00;99.90
52889;DHT22;41413;52.770;6.892;2023-07-29T06:14:04;18.00;99.90
52889;DHT22;41413;52.770;6.892;2023-07-29T06:16:31;18.10;99.90
52889;DHT22;41413;52.770;6.892;2023-07-29T06:18:57;18.10;99.90
52889;DHT22;41413;52.770;6.892;2023-07-29T06:21:24;18.10;99.90
52889;DHT22;41413;52.770;6.892;2023-07-29T06:23:51;18.20;99.90
52889;DHT22;41413;52.770;6.892;2023-07-29T06:26:18;18.30;99.90
52889;DHT22;41413;52.770;6.892;2023-07-29T06:28:44;18.20;99.90
52889;DHT22;41413;52.770;6.892;2023-07-29T06:31:11;18.40;99.90
52889;DHT22;41413;52.770;6.892;2023-07-29T06:33:38;18.40;99.90
52889;DHT22;41413;52.770;6.892;2023-07-29T06:36:05;18.40;99.90
52889;DHT22;41413;52.770;6.892;2023-07-29T06:38:31;18.50;99.90
52889;DHT22;41413;52.770;6.892;2023-07-29T06:40:58;18.50;99.90
52889;DHT22;41413;52.770;6.892;2023-07-29T06:43:25;18.50;99.90
52889;DHT22;41413;52.770;6.892;2023-07-29T06:45:52;18.50;99.90
52889;DHT22;41413;52.770;6.892;2023-07-29T06:48:19;18.50;99.90
52889;DHT22;41413;52.770;6.892;2023-07-29T06:50:46;18.50;99.90
52889;DHT22;41413;52.770;6.892;2023-07-29T06:53:13;18.50;99.90
52889;DHT22;41413;52.770;6.892;2023-07-29T06:55:40;18.60;99.90
52889;DHT22;41413;52.770;6.892;2023-07-29T06:58:07;18.70;99.90
52889;DHT22;41413;52.770;6.892;2023-07-29T07:00:34;18.80;99.90
52889;DHT22;41413;52.770;6.892;2023-07-29T07:03:00;18.90;99.90
52889;DHT22;41413;52.770;6.892;2023-07-29T07:05:27;19.00;99.90
52889;DHT22;41413;52.770;6.892;2023-07-29T07:07:54;18.90;99.90
52889;DHT22;41413;52.770;6.892;2023-07-29T07:10:21;19.00;99.90
52889;DHT22;41413;52.770;6.892;2023-07-29T07:12:47;19.00;99.90
52889;DHT22;41413;52.770;6.892;2023-07-29T07:15:14;19.00;99.90
52889;DHT22;41413;52.770;6.892;2023-07-29T07:17:41;19.00;99.90
52889;DHT22;41413;52.770;6.892;2023-07-29T07:20:08;19.00;99.90
52889;DHT22;41413;52.770;6.892;2023-07-29T07:22:35;19.00;99.90
52889;DHT22;41413;52.770;6.892;2023-07-29T07:25:02;19.00;99.90
52889;DHT22;41413;52.770;6.892;2023-07-29T07:27:28;18.80;99.90
52889;DHT22;41413;52.770;6.892;2023-07-29T07:29:55;19.00;99.90
52889;DHT22;41413;52.770;6.892;2023-07-29T07:32:22;18.90;99.90
52889;DHT22;41413;52.770;6.892;2023-07-29T07:34:49;19.10;99.90
52889;DHT22;41413;52.770;6.892;2023-07-29T07:37:16;19.20;99.90
52889;DHT22;41413;52.770;6.892;2023-07-29T07:39:42;19.20;99.90
52889;DHT22;41413;52.770;6.892;2023-07-29T07:42:09;19.20;99.90
52889;DHT22;41413;52.770;6.892;2023-07-29T07:44:36;19.40;99.90
52889;DHT22;41413;52.770;6.892;2023-07-29T07:47:03;19.40;99.90
52889;DHT22;41413;52.770;6.892;2023-07-29T07:49:31;19.50;99.90
52889;DHT22;41413;52.770;6.892;2023-07-29T07:51:57;19.40;99.90
52889;DHT22;41413;52.770;6.892;2023-07-29T07:54:24;19.50;99.90
52889;DHT22;41413;52.770;6.892;2023-07-29T07:56:51;19.50;99.90
52889;DHT22;41413;52.770;6.892;2023-07-29T07:59:18;19.50;99.90
52889;DHT22;41413;52.770;6.892;2023-07-29T08:01:44;19.70;99.90
52889;DHT22;41413;52.770;6.892;2023-07-29T08:04:11;19.90;99.90
52889;DHT22;41413;52.770;6.892;2023-07-29T08:06:38;20.00;99.90
52889;DHT22;41413;52.770;6.892;2023-07-29T08:09:05;20.00;99.90
52889;DHT22;41413;52.770;6.892;2023-07-29T08:11:32;20.30;99.90
52889;DHT22;41413;52.770;6.892;2023-07-29T08:13:59;20.40;99.90
52889;DHT22;41413;52.770;6.892;2023-07-29T08:16:26;20.40;99.90
52889;DHT22;41413;52.770;6.892;2023-07-29T08:18:52;20.30;99.90
52889;DHT22;41413;52.770;6.892;2023-07-29T08:21:19;20.30;99.90
52889;DHT22;41413;52.770;6.892;2023-07-29T08:23:46;20.30;99.90
52889;DHT22;41413;52.770;6.892;2023-07-29T08:26:13;20.20;99.90
52889;DHT22;41413;52.770;6.892;2023-07-29T08:28:40;20.00;99.90
52889;DHT22;41413;52.770;6.892;2023-07-29T08:31:07;20.10;99.90
52889;DHT22;41413;52.770;6.892;2023-07-29T08:33:34;20.10;99.90
52889;DHT22;41413;52.770;6.892;2023-07-29T08:36:02;19.90;99.90
52889;DHT22;41413;52.770;6.892;2023-07-29T08:38:29;20.00;99.90
52889;DHT22;41413;52.770;6.892;2023-07-29T08:41:14;20.20;99.90
52889;DHT22;41413;52.770;6.892;2023-07-29T08:44:09;20.70;99.90
52889;DHT22;41413;52.770;6.892;2023-07-29T08:46:39;21.40;99.90
52889;DHT22;41413;52.770;6.892;2023-07-29T08:49:07;21.10;99.90
52889;DHT22;41413;52.770;6.892;2023-07-29T08:51:34;20.90;99.90
52889;DHT22;41413;52.770;6.892;2023-07-29T08:54:01;20.80;99.90
52889;DHT22;41413;52.770;6.892;2023-07-29T08:56:28;21.10;99.90
52889;DHT22;41413;52.770;6.892;2023-07-29T08:58:57;21.50;99.90
52889;DHT22;41413;52.770;6.892;2023-07-29T09:01:24;21.40;99.90
52889;DHT22;41413;52.770;6.892;2023-07-29T09:03:51;21.70;99.90
52889;DHT22;41413;52.770;6.892;2023-07-29T09:06:18;22.30;99.90
52889;DHT22;41413;52.770;6.892;2023-07-29T09:08:46;23.20;99.90
52889;DHT22;41413;52.770;6.892;2023-07-29T09:11:15;23.50;99.90
52889;DHT22;41413;52.770;6.892;2023-07-29T09:13:43;23.70;99.90
52889;DHT22;41413;52.770;6.892;2023-07-29T09:16:10;23.50;99.90
52889;DHT22;41413;52.770;6.892;2023-07-29T09:18:37;23.60;99.90
52889;DHT22;41413;52.770;6.892;2023-07-29T09:21:04;23.90;99.90
52889;DHT22;41413;52.770;6.892;2023-07-29T09:23:41;23.90;99.90
52889;DHT22;41413;52.770;6.892;2023-07-29T09:26:08;23.80;99.90
52889;DHT22;41413;52.770;6.892;2023-07-29T09:28:40;24.40;99.90
52889;DHT22;41413;52.770;6.892;2023-07-29T09:31:10;24.10;99.90
52889;DHT22;41413;52.770;6.892;2023-07-29T09:33:45;23.40;99.90
52889;DHT22;41413;52.770;6.892;2023-07-29T09:36:11;23.30;99.90
52889;DHT22;41413;52.770;6.892;2023-07-29T09:38:38;22.90;99.90
52889;DHT22;41413;52.770;6.892;2023-07-29T09:41:06;22.70;99.90
52889;DHT22;41413;52.770;6.892;2023-07-29T09:43:34;23.00;99.90
52889;DHT22;41413;52.770;6.892;2023-07-29T09:46:05;23.80;99.90
52889;DHT22;41413;52.770;6.892;2023-07-29T09:48:34;23.80;99.90
52889;DHT22;41413;52.770;6.892;2023-07-29T09:51:11;24.00;99.90
52889;DHT22;41413;52.770;6.892;2023-07-29T09:53:46;23.60;99.90
52889;DHT22;41413;52.770;6.892;2023-07-29T09:56:14;23.00;99.90
52889;DHT22;41413;52.770;6.892;2023-07-29T09:58:45;22.80;99.90
52889;DHT22;41413;52.770;6.892;2023-07-29T10:01:13;22.90;99.90
52889;DHT22;41413;52.770;6.892;2023-07-29T10:03:40;24.10;99.90
52889;DHT22;41413;52.770;6.892;2023-07-29T10:06:08;24.00;99.90
52889;DHT22;41413;52.770;6.892;2023-07-29T10:08:34;23.90;99.90
52889;DHT22;41413;52.770;6.892;2023-07-29T10:11:02;23.80;99.90
52889;DHT22;41413;52.770;6.892;2023-07-29T10:13:29;23.50;99.90
52889;DHT22;41413;52.770;6.892;2023-07-29T10:15:55;23.40;99.90
52889;DHT22;41413;52.770;6.892;2023-07-29T10:18:24;23.40;99.90
52889;DHT22;41413;52.770;6.892;2023-07-29T10:20:51;23.30;99.90
52889;DHT22;41413;52.770;6.892;2023-07-29T10:23:21;24.00;99.90
52889;DHT22;41413;52.770;6.892;2023-07-29T10:26:01;23.80;99.90
52889;DHT22;41413;52.770;6.892;2023-07-29T10:28:30;23.50;99.90
52889;DHT22;41413;52.770;6.892;2023-07-29T10:30:59;23.90;99.90
52889;DHT22;41413;52.770;6.892;2023-07-29T10:33:26;24.00;99.90
52889;DHT22;41413;52.770;6.892;2023-07-29T10:35:54;23.80;99.90
52889;DHT22;41413;52.770;6.892;2023-07-29T10:38:22;23.30;99.90
52889;DHT22;41413;52.770;6.892;2023-07-29T10:40:51;23.10;99.90
52889;DHT22;41413;52.770;6.892;2023-07-29T10:43:26;23.40;99.90
52889;DHT22;41413;52.770;6.892;2023-07-29T10:45:55;24.00;99.90
52889;DHT22;41413;52.770;6.892;2023-07-29T10:48:42;24.40;99.90
52889;DHT22;41413;52.770;6.892;2023-07-29T10:54:12;24.60;99.90
52889;DHT22;41413;52.770;6.892;2023-07-29T10:56:46;24.20;99.90
52889;DHT22;41413;52.770;6.892;2023-07-29T11:01:51;23.90;99.90
52889;DHT22;41413;52.770;6.892;2023-07-29T11:15:02;23.60;99.90
52889;DHT22;41413;52.770;6.892;2023-07-29T11:17:33;23.20;99.90
52889;DHT22;41413;52.770;6.892;2023-07-29T11:20:03;23.20;99.90
52889;DHT22;41413;52.770;6.892;2023-07-29T11:22:30;23.30;99.90
52889;DHT22;41413;52.770;6.892;2023-07-29T11:25:00;23.40;99.90
52889;DHT22;41413;52.770;6.892;2023-07-29T11:27:27;23.80;99.90
52889;DHT22;41413;52.770;6.892;2023-07-29T11:30:13;23.90;99.90
52889;DHT22;41413;52.770;6.892;2023-07-29T11:32:41;23.80;99.90
52889;DHT22;41413;52.770;6.892;2023-07-29T11:35:15;23.70;99.90
52889;DHT22;41413;52.770;6.892;2023-07-29T11:37:45;24.10;99.90
52889;DHT22;41413;52.770;6.892;2023-07-29T11:40:18;24.10;99.90
52889;DHT22;41413;52.770;6.892;2023-07-29T11:42:46;24.00;99.90
52889;DHT22;41413;52.770;6.892;2023-07-29T11:45:14;23.70;99.90
52889;DHT22;41413;52.770;6.892;2023-07-29T11:47:44;23.60;99.90
52889;DHT22;41413;52.770;6.892;2023-07-29T11:50:12;23.50;99.90
52889;DHT22;41413;52.770;6.892;2023-07-29T11:52:44;23.50;99.90
52889;DHT22;41413;52.770;6.892;2023-07-29T11:55:12;23.30;99.90
52889;DHT22;41413;52.770;6.892;2023-07-29T11:57:40;23.00;99.90
52889;DHT22;41413;52.770;6.892;2023-07-29T12:00:09;22.90;99.90
52889;DHT22;41413;52.770;6.892;2023-07-29T12:02:40;22.70;99.90
52889;DHT22;41413;52.770;6.892;2023-07-29T12:05:09;22.60;99.90
52889;DHT22;41413;52.770;6.892;2023-07-29T12:07:38;22.80;99.90
52889;DHT22;41413;52.770;6.892;2023-07-29T12:10:06;23.10;99.90
52889;DHT22;41413;52.770;6.892;2023-07-29T12:12:35;23.10;99.90
52889;DHT22;41413;52.770;6.892;2023-07-29T12:15:04;23.20;99.90
52889;DHT22;41413;52.770;6.892;2023-07-29T12:17:32;23.30;99.90
52889;DHT22;41413;52.770;6.892;2023-07-29T12:20:08;23.50;99.90
52889;DHT22;41413;52.770;6.892;2023-07-29T12:22:36;23.70;99.90
52889;DHT22;41413;52.770;6.892;2023-07-29T12:25:03;23.90;99.90
52889;DHT22;41413;52.770;6.892;2023-07-29T12:27:30;23.80;99.90
52889;DHT22;41413;52.770;6.892;2023-07-29T12:30:00;23.60;99.90
52889;DHT22;41413;52.770;6.892;2023-07-29T12:32:29;23.50;99.90
52889;DHT22;41413;52.770;6.892;2023-07-29T12:34:57;23.70;99.90
52889;DHT22;41413;52.770;6.892;2023-07-29T12:37:31;23.70;99.90
52889;DHT22;41413;52.770;6.892;2023-07-29T12:39:59;23.50;99.90
52889;DHT22;41413;52.770;6.892;2023-07-29T12:42:25;23.70;99.90
52889;DHT22;41413;52.770;6.892;2023-07-29T12:44:52;23.70;99.90
52889;DHT22;41413;52.770;6.892;2023-07-29T12:47:19;23.70;99.90
52889;DHT22;41413;52.770;6.892;2023-07-29T12:49:46;23.40;99.90
52889;DHT22;41413;52.770;6.892;2023-07-29T12:52:12;23.70;99.90
52889;DHT22;41413;52.770;6.892;2023-07-29T12:54:40;24.20;99.90
52889;DHT22;41413;52.770;6.892;2023-07-29T12:57:08;24.40;99.90
52889;DHT22;41413;52.770;6.892;2023-07-29T12:59:34;24.60;99.90
52889;DHT22;41413;52.770;6.892;2023-07-29T13:02:01;24.30;99.90
52889;DHT22;41413;52.770;6.892;2023-07-29T13:04:29;24.50;99.90
52889;DHT22;41413;52.770;6.892;2023-07-29T13:06:56;24.30;99.90
52889;DHT22;41413;52.770;6.892;2023-07-29T13:09:23;23.80;99.90
52889;DHT22;41413;52.770;6.892;2023-07-29T13:11:50;24.00;99.90
52889;DHT22;41413;52.770;6.892;2023-07-29T13:14:16;23.70;99.90
52889;DHT22;41413;52.770;6.892;2023-07-29T13:16:43;23.70;99.90
52889;DHT22;41413;52.770;6.892;2023-07-29T13:19:10;23.30;99.90
52889;DHT22;41413;52.770;6.892;2023-07-29T13:21:37;23.30;99.90
52889;DHT22;41413;52.770;6.892;2023-07-29T13:24:03;23.40;99.90
52889;DHT22;41413;52.770;6.892;2023-07-29T13:26:30;23.30;99.90
52889;DHT22;41413;52.770;6.892;2023-07-29T13:28:57;23.40;99.90
52889;DHT22;41413;52.770;6.892;2023-07-29T13:31:24;23.40;99.90
52889;DHT22;41413;52.770;6.892;2023-07-29T13:33:51;23.50;99.90
52889;DHT22;41413;52.770;6.892;2023-07-29T13:36:18;23.60;99.90
52889;DHT22;41413;52.770;6.892;2023-07-29T13:38:45;23.90;99.90
52889;DHT22;41413;52.770;6.892;2023-07-29T13:41:11;23.80;99.90
52889;DHT22;41413;52.770;6.892;2023-07-29T13:43:38;23.80;99.90
52889;DHT22;41413;52.770;6.892;2023-07-29T13:46:05;23.50;99.90
52889;DHT22;41413;52.770;6.892;2023-07-29T13:48:31;23.60;99.90
52889;DHT22;41413;52.770;6.892;2023-07-29T13:50:59;23.70;99.90
52889;DHT22;41413;52.770;6.892;2023-07-29T13:53:26;23.70;99.90
52889;DHT22;41413;52.770;6.892;2023-07-29T13:55:53;23.80;99.90
52889;DHT22;41413;52.770;6.892;2023-07-29T13:58:19;24.10;99.90
52889;DHT22;41413;52.770;6.892;2023-07-29T14:00:46;24.10;99.90
52889;DHT22;41413;52.770;6.892;2023-07-29T14:03:13;24.00;99.90
52889;DHT22;41413;52.770;6.892;2023-07-29T14:05:40;23.80;99.90
52889;DHT22;41413;52.770;6.892;2023-07-29T14:08:06;23.60;99.90
52889;DHT22;41413;52.770;6.892;2023-07-29T14:10:33;23.70;99.90
52889;DHT22;41413;52.770;6.892;2023-07-29T14:13:00;23.70;99.90
52889;DHT22;41413;52.770;6.892;2023-07-29T14:15:26;23.60;99.90
52889;DHT22;41413;52.770;6.892;2023-07-29T14:17:54;23.50;99.90
52889;DHT22;41413;52.770;6.892;2023-07-29T14:20:21;23.60;99.90
52889;DHT22;41413;52.770;6.892;2023-07-29T14:22:48;23.60;99.90
52889;DHT22;41413;52.770;6.892;2023-07-29T14:25:15;23.20;99.90
52889;DHT22;41413;52.770;6.892;2023-07-29T14:27:42;23.10;99.90
52889;DHT22;41413;52.770;6.892;2023-07-29T14:30:09;23.10;99.90
52889;DHT22;41413;52.770;6.892;2023-07-29T14:32:36;23.00;99.90
52889;DHT22;41413;52.770;6.892;2023-07-29T14:35:04;22.80;99.90
52889;DHT22;41413;52.770;6.892;2023-07-29T14:37:31;22.60;99.90
52889;DHT22;41413;52.770;6.892;2023-07-29T14:39:58;22.60;99.90
52889;DHT22;41413;52.770;6.892;2023-07-29T14:42:26;22.40;99.90
52889;DHT22;41413;52.770;6.892;2023-07-29T14:44:53;22.60;99.90
52889;DHT22;41413;52.770;6.892;2023-07-29T14:47:20;22.60;99.90
52889;DHT22;41413;52.770;6.892;2023-07-29T14:49:47;22.40;99.90
52889;DHT22;41413;52.770;6.892;2023-07-29T14:52:13;22.50;99.90
52889;DHT22;41413;52.770;6.892;2023-07-29T14:54:40;22.40;99.90
52889;DHT22;41413;52.770;6.892;2023-07-29T14:57:10;22.30;99.90
52889;DHT22;41413;52.770;6.892;2023-07-29T14:59:36;22.20;99.90
52889;DHT22;41413;52.770;6.892;2023-07-29T15:02:03;22.00;99.90
52889;DHT22;41413;52.770;6.892;2023-07-29T15:04:30;22.00;99.90
52889;DHT22;41413;52.770;6.892;2023-07-29T15:06:57;21.80;99.90
52889;DHT22;41413;52.770;6.892;2023-07-29T15:09:24;21.60;99.90
52889;DHT22;41413;52.770;6.892;2023-07-29T15:11:51;21.50;99.90
52889;DHT22;41413;52.770;6.892;2023-07-29T15:14:18;21.30;99.90
52889;DHT22;41413;52.770;6.892;2023-07-29T15:16:45;21.10;99.90
52889;DHT22;41413;52.770;6.892;2023-07-29T15:19:11;20.90;99.90
52889;DHT22;41413;52.770;6.892;2023-07-29T15:21:44;20.80;99.90
52889;DHT22;41413;52.770;6.892;2023-07-29T15:24:11;20.80;99.90
52889;DHT22;41413;52.770;6.892;2023-07-29T15:26:38;20.90;99.90
52889;DHT22;41413;52.770;6.892;2023-07-29T15:29:05;21.00;99.90
52889;DHT22;41413;52.770;6.892;2023-07-29T15:31:36;21.20;99.90
52889;DHT22;41413;52.770;6.892;2023-07-29T15:34:05;21.30;99.90
52889;DHT22;41413;52.770;6.892;2023-07-29T15:36:32;21.40;99.90
52889;DHT22;41413;52.770;6.892;2023-07-29T15:38:59;21.20;99.90
52889;DHT22;41413;52.770;6.892;2023-07-29T15:41:26;21.40;99.90
52889;DHT22;41413;52.770;6.892;2023-07-29T15:43:53;21.60;99.90
52889;DHT22;41413;52.770;6.892;2023-07-29T15:46:21;21.70;99.90
52889;DHT22;41413;52.770;6.892;2023-07-29T15:48:47;21.90;99.90
52889;DHT22;41413;52.770;6.892;2023-07-29T15:51:15;22.00;99.90